createdAt,value
2022-08-18T00:01:07.647Z,25.20
2022-08-18T00:03:55.395Z,25.10
2022-08-18T00:06:28.352Z,25.10
2022-08-18T00:08:56.858Z,25.10
2022-08-18T00:11:24.810Z,25.00
2022-08-18T00:13:52.740Z,24.90
2022-08-18T00:16:20.620Z,24.90
2022-08-18T00:18:49.814Z,24.80
2022-08-18T00:21:18.365Z,24.90
2022-08-18T00:23:46.453Z,24.90
2022-08-18T00:26:14.324Z,24.90
2022-08-18T00:28:42.173Z,25.00
2022-08-18T00:31:10.197Z,25.00
2022-08-18T00:33:38.022Z,25.00
2022-08-18T00:36:07.473Z,24.90
2022-08-18T00:38:35.413Z,24.90
2022-08-18T00:41:03.275Z,24.90
2022-08-18T00:43:36.618Z,24.90
2022-08-18T00:46:08.834Z,24.90
2022-08-18T00:48:37.102Z,24.90
2022-08-18T00:51:11.629Z,24.90
2022-08-18T00:53:45.699Z,24.90
2022-08-18T00:56:24.715Z,24.90
2022-08-18T00:58:56.995Z,24.90
2022-08-18T01:01:28.531Z,24.90
2022-08-18T01:04:02.108Z,24.80
2022-08-18T01:06:37.844Z,24.80
2022-08-18T01:09:05.793Z,24.80
2022-08-18T01:11:36.879Z,24.70
2022-08-18T01:14:05.692Z,24.70
2022-08-18T01:16:53.186Z,24.70
2022-08-18T01:19:45.315Z,24.70
2022-08-18T01:22:26.591Z,24.70
2022-08-18T01:25:16.541Z,24.70
2022-08-18T01:30:16.282Z,24.70
2022-08-18T01:32:45.849Z,24.70
2022-08-18T01:35:17.045Z,24.70
2022-08-18T01:37:44.955Z,24.70
2022-08-18T01:41:22.838Z,24.70
2022-08-18T01:43:05.399Z,24.70
2022-08-18T01:45:34.472Z,24.70
2022-08-18T01:48:04.846Z,24.70
2022-08-18T01:50:35.074Z,24.70
2022-08-18T01:53:05.844Z,24.70
2022-08-18T01:55:36.540Z,24.70
2022-08-18T01:58:05.427Z,24.70
2022-08-18T02:00:33.542Z,24.70
2022-08-18T02:03:03.089Z,24.70
2022-08-18T02:05:35.455Z,24.70
2022-08-18T02:08:03.560Z,24.80
2022-08-18T02:10:31.765Z,24.70
2022-08-18T02:13:01.300Z,24.70
2022-08-18T02:17:57.519Z,24.60
2022-08-18T02:20:25.945Z,24.70
2022-08-18T02:22:53.838Z,24.70
2022-08-18T02:25:23.042Z,24.80
2022-08-18T02:27:51.250Z,24.80
2022-08-18T02:30:20.937Z,24.80
2022-08-18T02:32:48.993Z,24.90
2022-08-18T02:35:17.296Z,24.90
2022-08-18T02:37:47.914Z,24.90
2022-08-18T02:40:17.116Z,24.70
2022-08-18T02:42:45.584Z,24.70
2022-08-18T02:45:14.345Z,24.80
2022-08-18T02:47:44.206Z,24.80
2022-08-18T02:50:13.427Z,24.80
2022-08-18T02:55:10.788Z,24.30
2022-08-18T02:57:43.340Z,24.30
2022-08-18T03:00:13.774Z,24.00
2022-08-18T03:02:46.026Z,24.00
2022-08-18T03:05:14.747Z,23.90
2022-08-18T03:10:31.939Z,23.80
2022-08-18T03:12:59.925Z,23.80
2022-08-18T03:15:27.748Z,23.80
2022-08-18T03:17:58.146Z,23.80
2022-08-18T03:20:30.282Z,23.80
2022-08-18T03:22:59.639Z,23.80
2022-08-18T03:25:34.226Z,23.90
2022-08-18T03:28:03.817Z,23.90
2022-08-18T03:30:31.642Z,24.00
2022-08-18T03:33:00.962Z,24.00
2022-08-18T03:35:30.023Z,24.00
2022-08-18T03:37:59.820Z,24.00
2022-08-18T03:40:27.690Z,24.00
2022-08-18T03:42:55.523Z,24.00
2022-08-18T03:45:24.381Z,23.90
2022-08-18T03:47:52.553Z,23.90
2022-08-18T03:50:24.448Z,23.80
2022-08-18T03:52:52.505Z,23.90
2022-08-18T03:55:21.578Z,23.90
2022-08-18T03:57:52.764Z,23.80
2022-08-18T04:00:20.995Z,23.80
2022-08-18T04:02:48.856Z,23.80
2022-08-18T04:05:16.819Z,23.80
2022-08-18T04:07:45.990Z,23.80
2022-08-18T04:10:19.169Z,23.70
2022-08-18T04:12:47.909Z,23.80
2022-08-18T04:15:16.700Z,23.80
2022-08-18T04:20:32.564Z,23.70
2022-08-18T04:23:02.468Z,23.90
2022-08-18T04:25:33.353Z,23.90
2022-08-18T04:28:03.266Z,23.90
2022-08-18T04:30:31.219Z,23.90
2022-08-18T04:32:59.060Z,23.90
2022-08-18T04:35:29.097Z,23.90
2022-08-18T04:37:57.058Z,23.80
2022-08-18T04:40:27.175Z,23.70
2022-08-18T04:42:55.082Z,23.70
2022-08-18T04:45:22.938Z,23.70
2022-08-18T04:47:51.996Z,23.60
2022-08-18T04:50:20.218Z,23.70
2022-08-18T04:53:05.741Z,23.70
2022-08-18T04:55:34.923Z,23.70
2022-08-18T04:58:02.732Z,23.70
2022-08-18T05:00:30.703Z,23.80
2022-08-18T05:02:58.569Z,23.70
2022-08-18T05:05:27.473Z,23.70
2022-08-18T05:07:55.292Z,23.80
2022-08-18T05:10:23.130Z,23.80
2022-08-18T05:12:52.302Z,23.80
2022-08-18T05:15:20.343Z,23.80
2022-08-18T05:17:50.959Z,23.80
2022-08-18T05:20:19.793Z,23.90
2022-08-18T05:25:16.145Z,24.00
2022-08-18T05:27:44.835Z,24.00
2022-08-18T05:30:15.148Z,24.10
2022-08-18T05:32:49.236Z,24.20
2022-08-18T05:35:24.690Z,24.20
2022-08-18T05:38:21.839Z,24.20
2022-08-18T05:41:03.587Z,24.00
2022-08-18T05:43:33.035Z,24.00
2022-08-18T05:46:05.321Z,23.90
2022-08-18T05:48:33.954Z,23.80
2022-08-18T05:51:09.532Z,23.80
2022-08-18T05:53:51.565Z,23.80
2022-08-18T05:56:43.318Z,23.80
2022-08-18T05:59:12.052Z,23.80
2022-08-18T06:01:46.220Z,23.70
2022-08-18T06:04:25.715Z,23.80
2022-08-18T06:06:56.307Z,23.90
2022-08-18T06:09:29.856Z,23.90
2022-08-18T06:12:09.003Z,23.90
2022-08-18T06:14:41.215Z,23.80
2022-08-18T06:17:19.276Z,23.60
2022-08-18T06:19:53.293Z,23.50
2022-08-18T06:22:29.829Z,23.50
2022-08-18T06:25:07.326Z,23.50
2022-08-18T06:27:43.119Z,23.60
2022-08-18T06:30:15.405Z,23.50
2022-08-18T06:33:02.496Z,23.50
2022-08-18T06:35:38.379Z,23.50
2022-08-18T06:38:45.293Z,23.40
2022-08-18T06:41:41.706Z,23.30
2022-08-18T06:44:08.471Z,23.30
2022-08-18T06:46:43.174Z,23.30
2022-08-18T06:49:15.548Z,23.30
2022-08-18T06:51:43.526Z,23.30
2022-08-18T06:54:29.317Z,23.30
2022-08-18T06:56:58.708Z,23.30
2022-08-18T06:59:29.687Z,23.30
2022-08-18T07:02:01.948Z,23.30
2022-08-18T07:05:02.239Z,23.30
2022-08-18T07:07:40.147Z,23.30
2022-08-18T07:10:29.090Z,23.20
2022-08-18T07:13:17.058Z,23.10
2022-08-18T07:15:46.020Z,23.10
2022-08-18T07:18:17.248Z,23.10
2022-08-18T07:20:48.424Z,23.10
2022-08-18T07:23:28.471Z,23.10
2022-08-18T07:26:09.487Z,23.10
2022-08-18T07:28:40.277Z,23.10
2022-08-18T07:31:28.787Z,23.10
2022-08-18T07:34:02.136Z,23.10
2022-08-18T07:36:35.454Z,23.00
2022-08-18T07:39:08.575Z,23.00
2022-08-18T07:41:45.517Z,23.00
2022-08-18T07:46:54.324Z,23.00
2022-08-18T07:49:25.221Z,23.00
2022-08-18T07:52:01.720Z,23.10
2022-08-18T07:54:51.329Z,23.10
2022-08-18T07:57:28.326Z,23.20
2022-08-18T08:02:38.609Z,23.10
2022-08-18T08:05:17.005Z,23.20
2022-08-18T08:07:55.062Z,23.20
2022-08-18T08:10:33.758Z,23.40
2022-08-18T08:13:16.981Z,23.60
2022-08-18T08:15:57.303Z,23.60
2022-08-18T08:18:37.592Z,23.60
2022-08-18T08:21:10.926Z,23.80
2022-08-18T08:23:48.977Z,23.80
2022-08-18T08:26:27.952Z,23.90
2022-08-18T08:29:09.897Z,24.00
2022-08-18T08:31:49.318Z,24.00
2022-08-18T08:34:22.158Z,24.10
2022-08-18T08:36:54.883Z,24.00
2022-08-18T08:39:28.274Z,24.00
2022-08-18T08:42:31.596Z,24.10
2022-08-18T08:45:00.879Z,24.20
2022-08-18T08:47:36.358Z,24.20
2022-08-18T08:50:08.275Z,23.80
2022-08-18T08:52:41.336Z,23.80
2022-08-18T08:55:16.279Z,23.70
2022-08-18T08:57:49.712Z,23.60
2022-08-18T09:00:17.812Z,23.70
2022-08-18T09:02:59.059Z,23.70
2022-08-18T09:05:30.447Z,24.00
2022-08-18T09:08:15.934Z,24.00
2022-08-18T09:11:16.359Z,24.00
2022-08-18T09:14:14.448Z,24.00
2022-08-18T09:16:53.092Z,24.00
2022-08-18T09:19:48.025Z,23.90
2022-08-18T09:22:29.810Z,23.80
2022-08-18T09:24:59.128Z,23.90
2022-08-18T09:28:00.166Z,23.80
2022-08-18T09:30:40.706Z,23.80
2022-08-18T09:33:24.580Z,23.80
2022-08-18T09:36:18.380Z,23.80
2022-08-18T09:39:11.259Z,23.80
2022-08-18T09:41:49.089Z,23.80
2022-08-18T09:44:56.074Z,23.90
2022-08-18T09:47:59.865Z,23.90
2022-08-18T09:50:53.072Z,24.00
2022-08-18T09:53:53.500Z,24.00
2022-08-18T09:56:55.761Z,23.90
2022-08-18T09:59:52.950Z,23.90
2022-08-18T10:02:54.670Z,24.00
2022-08-18T10:05:29.014Z,24.00
2022-08-18T10:08:21.181Z,24.10
2022-08-18T10:11:01.027Z,24.20
2022-08-18T10:13:49.564Z,24.20
2022-08-18T10:16:28.116Z,24.20
2022-08-18T10:19:10.924Z,24.20
2022-08-18T10:22:08.005Z,24.30
2022-08-18T10:24:41.001Z,24.40
2022-08-18T10:27:33.615Z,24.50
2022-08-18T10:30:02.265Z,24.50
2022-08-18T10:36:04.315Z,24.60
2022-08-18T10:38:53.374Z,24.60
2022-08-18T10:41:30.670Z,24.60
2022-08-18T10:44:00.968Z,24.60
2022-08-18T10:46:36.992Z,24.50
2022-08-18T10:49:21.443Z,24.50
2022-08-18T10:52:20.896Z,24.50
2022-08-18T10:55:48.337Z,24.40
2022-08-18T10:58:31.528Z,24.40
2022-08-18T11:01:10.222Z,24.50
2022-08-18T11:04:04.152Z,24.50
2022-08-18T11:06:48.333Z,24.50
2022-08-18T11:09:25.808Z,24.50
2022-08-18T11:11:58.450Z,24.50
2022-08-18T11:15:23.584Z,24.40
2022-08-18T11:18:11.435Z,24.50
2022-08-18T11:20:42.998Z,24.40
2022-08-18T11:23:14.888Z,24.40
2022-08-18T11:25:44.778Z,24.40
2022-08-18T11:28:19.099Z,24.40
2022-08-18T11:30:50.330Z,24.40
2022-08-18T11:33:23.039Z,24.40
2022-08-18T11:35:57.639Z,24.30
2022-08-18T11:38:29.663Z,24.30
2022-08-18T11:41:17.463Z,24.40
2022-08-18T11:43:48.348Z,24.40
2022-08-18T11:46:30.867Z,24.50
2022-08-18T11:49:01.368Z,24.70
2022-08-18T11:51:32.203Z,24.90
2022-08-18T11:54:03.127Z,25.10
2022-08-18T11:59:54.690Z,25.50
2022-08-18T12:02:25.882Z,25.80
2022-08-18T12:04:56.786Z,26.00
2022-08-18T12:07:29.858Z,26.30
2022-08-18T12:10:19.812Z,26.40
2022-08-18T12:12:51.878Z,26.50
2022-08-18T12:15:43.765Z,26.50
2022-08-18T12:18:26.195Z,26.50
2022-08-18T12:20:57.577Z,26.50
2022-08-18T12:23:25.633Z,26.60
2022-08-18T12:25:53.522Z,26.50
2022-08-18T12:28:22.686Z,26.50
2022-08-18T12:30:57.668Z,26.50
2022-08-18T12:33:34.481Z,26.50
2022-08-18T12:36:15.773Z,26.40
2022-08-18T12:38:52.110Z,26.40
2022-08-18T12:41:24.649Z,26.40
2022-08-18T12:43:58.543Z,26.40
2022-08-18T12:46:28.876Z,26.40
2022-08-18T12:48:56.958Z,26.50
2022-08-18T12:54:13.051Z,26.50
2022-08-18T12:56:42.673Z,26.60
2022-08-18T12:59:11.255Z,26.70
2022-08-18T13:01:41.063Z,26.80
2022-08-18T13:04:13.373Z,26.80
2022-08-18T13:07:01.493Z,26.90
2022-08-18T13:09:34.573Z,27.10
2022-08-18T13:12:18.825Z,27.10
2022-08-18T13:14:48.055Z,27.20
2022-08-18T13:17:29.987Z,27.20
2022-08-18T13:20:01.136Z,27.40
2022-08-18T13:22:32.812Z,27.40
2022-08-18T13:25:02.013Z,27.50
2022-08-18T13:27:35.290Z,27.50
2022-08-18T13:30:16.670Z,27.70
2022-08-18T13:32:59.107Z,27.70
2022-08-18T13:35:29.983Z,27.70
2022-08-18T13:38:12.425Z,27.70
2022-08-18T13:40:46.842Z,27.60
2022-08-18T13:43:15.958Z,27.60
2022-08-18T13:45:48.144Z,27.50
2022-08-18T13:48:23.852Z,27.40
2022-08-18T13:50:53.614Z,27.50
2022-08-18T13:53:24.666Z,27.50
2022-08-18T13:55:54.484Z,27.60
2022-08-18T13:58:22.279Z,27.70
2022-08-18T14:00:53.950Z,27.80
2022-08-18T14:03:42.677Z,27.80
2022-08-18T14:06:13.302Z,27.80
2022-08-18T14:08:41.884Z,27.90
2022-08-18T14:11:10.586Z,28.10
2022-08-18T14:13:43.931Z,28.20
2022-08-18T14:16:16.124Z,28.30
2022-08-18T14:19:09.845Z,28.30
2022-08-18T14:22:00.279Z,28.30
2022-08-18T14:24:49.122Z,28.30
2022-08-18T14:27:17.961Z,28.30
2022-08-18T14:29:50.856Z,28.20
2022-08-18T14:32:29.446Z,28.20
2022-08-18T14:35:33.598Z,28.20
2022-08-18T14:37:48.431Z,28.30
2022-08-18T14:40:16.984Z,28.30
2022-08-18T14:42:54.281Z,28.30
2022-08-18T14:45:31.295Z,28.40
2022-08-18T14:48:06.631Z,28.40
2022-08-18T14:50:37.150Z,28.40
2022-08-18T14:53:06.621Z,28.40
2022-08-18T14:55:35.925Z,28.50
2022-08-18T14:58:03.935Z,28.60
2022-08-18T15:00:35.560Z,28.70
2022-08-18T15:03:21.312Z,28.70
2022-08-18T15:05:57.931Z,28.50
2022-08-18T15:08:27.140Z,28.50
2022-08-18T15:10:56.287Z,28.40
2022-08-18T15:13:26.539Z,28.40
2022-08-18T15:15:55.847Z,28.30
2022-08-18T15:18:31.385Z,28.10
2022-08-18T15:21:19.319Z,28.00
2022-08-18T15:24:22.091Z,28.00
2022-08-18T15:26:57.440Z,27.90
2022-08-18T15:29:29.255Z,27.80
2022-08-18T15:32:02.383Z,27.70
2022-08-18T15:34:46.071Z,27.60
2022-08-18T15:37:19.436Z,27.60
2022-08-18T15:39:51.878Z,27.50
2022-08-18T15:42:24.296Z,27.50
2022-08-18T15:44:53.707Z,27.50
2022-08-18T15:47:22.144Z,27.40
2022-08-18T15:49:54.837Z,27.20
2022-08-18T15:52:26.004Z,27.20
2022-08-18T15:54:56.940Z,27.10
2022-08-18T15:57:39.170Z,27.10
2022-08-18T16:00:12.573Z,27.00
2022-08-18T16:02:44.554Z,27.00
2022-08-18T16:05:16.772Z,26.90
2022-08-18T16:07:47.406Z,26.90
2022-08-18T16:10:17.428Z,26.90
2022-08-18T16:12:45.963Z,26.90
2022-08-18T16:15:15.411Z,26.90
2022-08-18T16:17:47.905Z,26.90
2022-08-18T16:20:18.613Z,26.90
2022-08-18T16:22:48.563Z,26.90
2022-08-18T16:25:17.207Z,26.90
2022-08-18T16:27:47.661Z,26.90
2022-08-18T16:30:18.882Z,26.90
2022-08-18T16:32:47.332Z,26.90
2022-08-18T16:35:15.787Z,26.80
2022-08-18T16:37:44.106Z,26.80
2022-08-18T16:40:14.473Z,26.70
2022-08-18T16:42:42.356Z,26.80
2022-08-18T16:45:12.215Z,26.80
2022-08-18T16:47:42.044Z,26.80
2022-08-18T16:50:12.197Z,26.80
2022-08-18T16:55:10.792Z,26.80
2022-08-18T16:57:59.673Z,26.70
2022-08-18T17:00:46.254Z,26.70
2022-08-18T17:03:40.324Z,26.60
2022-08-18T17:06:11.749Z,26.50
2022-08-18T17:08:40.287Z,26.40
2022-08-18T17:11:10.356Z,26.40
2022-08-18T17:13:40.609Z,26.30
2022-08-18T17:16:09.546Z,26.30
2022-08-18T17:18:38.429Z,26.30
2022-08-18T17:21:07.889Z,26.30
2022-08-18T17:23:38.703Z,26.20
2022-08-18T17:26:10.159Z,26.20
2022-08-18T17:28:50.173Z,26.20
2022-08-18T17:31:20.661Z,26.10
2022-08-18T17:33:48.962Z,26.10
2022-08-18T17:36:21.930Z,26.10
2022-08-18T17:38:57.127Z,26.00
2022-08-18T17:43:57.062Z,26.00
2022-08-18T17:46:29.190Z,26.00
2022-08-18T17:49:01.005Z,25.90
2022-08-18T17:51:34.355Z,25.90
2022-08-18T17:54:06.299Z,25.80
2022-08-18T17:56:40.944Z,25.80
2022-08-18T17:59:46.517Z,27.50
2022-08-18T18:02:28.460Z,25.70
2022-08-18T18:04:58.977Z,25.70
2022-08-18T18:07:30.227Z,25.70
2022-08-18T18:10:02.695Z,26.40
2022-08-18T18:12:33.020Z,25.60
2022-08-18T18:15:05.864Z,25.60
2022-08-18T18:17:37.609Z,25.60
2022-08-18T18:20:24.121Z,25.60
2022-08-18T18:22:52.597Z,25.60
2022-08-18T18:25:34.469Z,25.50
2022-08-18T18:28:02.675Z,25.50
2022-08-18T18:30:32.770Z,25.50
2022-08-18T18:33:03.698Z,25.50
2022-08-18T18:35:34.092Z,25.50
2022-08-18T18:38:04.519Z,25.50
2022-08-18T18:40:35.775Z,25.50
2022-08-18T18:43:25.287Z,25.50
2022-08-18T18:46:18.344Z,25.50
2022-08-18T18:48:57.510Z,25.40
2022-08-18T18:51:33.263Z,25.40
2022-08-18T18:54:10.539Z,25.30
2022-08-18T18:56:45.371Z,25.30
2022-08-18T18:59:38.526Z,25.30
2022-08-18T19:02:34.161Z,25.10
2022-08-18T19:05:11.621Z,25.20
2022-08-18T19:08:00.451Z,25.00
2022-08-18T19:10:36.425Z,25.00
2022-08-18T19:13:10.485Z,24.90
2022-08-18T19:15:40.604Z,24.80
2022-08-18T19:18:25.706Z,24.80
2022-08-18T19:22:04.022Z,24.80
2022-08-18T19:23:51.997Z,24.80
2022-08-18T19:26:27.080Z,24.80
2022-08-18T19:29:12.365Z,24.70
2022-08-18T19:31:45.645Z,24.70
2022-08-18T19:34:19.220Z,24.70
2022-08-18T19:36:55.407Z,24.70
2022-08-18T19:39:31.660Z,24.70
2022-08-18T19:42:01.793Z,24.70
2022-08-18T19:44:38.534Z,24.70
2022-08-18T19:47:13.805Z,24.70
2022-08-18T19:49:55.245Z,24.70
2022-08-18T19:52:45.644Z,24.70
2022-08-18T19:55:28.182Z,24.70
2022-08-18T19:58:15.321Z,24.70
2022-08-18T20:00:52.018Z,24.70
2022-08-18T20:03:39.183Z,24.70
2022-08-18T20:06:34.354Z,24.70
2022-08-18T20:09:32.208Z,24.70
2022-08-18T20:12:37.449Z,24.70
2022-08-18T20:15:15.872Z,24.70
2022-08-18T20:18:19.922Z,24.70
2022-08-18T20:21:36.839Z,24.70
2022-08-18T20:24:32.224Z,24.70
2022-08-18T20:27:32.886Z,24.70
2022-08-18T20:30:24.021Z,24.70
2022-08-18T20:33:30.602Z,24.70
2022-08-18T20:36:11.383Z,24.70
2022-08-18T20:38:45.376Z,24.60
2022-08-18T20:41:31.275Z,24.60
2022-08-18T20:44:10.638Z,24.60
2022-08-18T20:46:48.599Z,24.60
2022-08-18T20:49:33.988Z,24.60
2022-08-18T20:52:13.025Z,24.50
2022-08-18T20:54:57.387Z,24.50
2022-08-18T20:57:29.855Z,24.50
2022-08-18T21:00:06.376Z,24.50
2022-08-18T21:02:40.587Z,24.50
2022-08-18T21:05:28.001Z,24.40
2022-08-18T21:08:04.608Z,24.40
2022-08-18T21:10:34.859Z,24.40
2022-08-18T21:13:05.062Z,24.40
2022-08-18T21:15:36.438Z,24.40
2022-08-18T21:18:07.368Z,24.40
2022-08-18T21:20:35.660Z,24.30
2022-08-18T21:23:09.587Z,24.30
2022-08-18T21:25:48.954Z,24.30
2022-08-18T21:28:17.914Z,24.20
2022-08-18T21:30:56.767Z,24.10
2022-08-18T21:33:50.931Z,24.20
2022-08-18T21:36:22.164Z,24.10
2022-08-18T21:38:58.444Z,24.10
2022-08-18T21:41:42.334Z,24.10
2022-08-18T21:44:16.678Z,24.10
2022-08-18T21:46:46.309Z,24.00
2022-08-18T21:49:23.388Z,24.00
2022-08-18T21:51:52.603Z,24.00
2022-08-18T21:54:22.671Z,24.00
2022-08-18T21:57:22.725Z,24.00
2022-08-18T22:00:15.066Z,23.90
2022-08-18T22:02:43.032Z,23.90
2022-08-18T22:05:11.870Z,23.80
2022-08-18T22:07:47.772Z,23.80
2022-08-18T22:10:45.489Z,23.80
2022-08-18T22:13:41.018Z,23.80
2022-08-18T22:16:24.590Z,23.80
2022-08-18T22:18:52.720Z,23.80
2022-08-18T22:21:34.384Z,23.70
2022-08-18T22:24:19.576Z,23.70
2022-08-18T22:26:51.396Z,23.70
2022-08-18T22:29:32.460Z,23.70
2022-08-18T22:32:01.931Z,23.70
2022-08-18T22:34:32.477Z,23.70
2022-08-18T22:37:02.752Z,23.70
2022-08-18T22:39:34.539Z,23.70
2022-08-18T22:42:02.933Z,23.70
2022-08-18T22:44:32.208Z,23.70
2022-08-18T22:47:00.610Z,23.70
2022-08-18T22:49:29.812Z,23.70
2022-08-18T22:51:57.939Z,23.70
2022-08-18T22:54:26.292Z,23.70
2022-08-18T22:56:57.765Z,23.70
2022-08-18T22:59:27.006Z,23.60
2022-08-18T23:01:58.412Z,23.70
2022-08-18T23:04:26.655Z,23.70
2022-08-18T23:06:56.095Z,23.60
2022-08-18T23:09:26.751Z,23.70
2022-08-18T23:11:57.827Z,23.60
2022-08-18T23:14:26.158Z,23.60
2022-08-18T23:16:54.026Z,23.60
2022-08-18T23:19:23.146Z,23.50
2022-08-18T23:21:51.616Z,23.60
2022-08-18T23:24:20.655Z,23.60
2022-08-18T23:26:49.203Z,23.60
2022-08-18T23:29:17.275Z,23.60
2022-08-18T23:31:45.941Z,23.60
2022-08-18T23:34:17.299Z,23.50
2022-08-18T23:36:52.333Z,23.50
2022-08-18T23:49:30.215Z,23.40
2022-08-18T23:52:00.562Z,23.30
2022-08-18T23:54:30.349Z,23.40
2022-08-18T23:56:58.892Z,23.30
2022-08-18T23:59:28.638Z,23.40
